createdAt,value
2018-07-03T00:00:15.499Z,83.90
2018-07-03T00:02:44.268Z,84.00
2018-07-03T00:05:12.988Z,83.90
2018-07-03T00:07:41.752Z,84.00
2018-07-03T00:10:11.605Z,84.20
2018-07-03T00:12:40.291Z,84.50
2018-07-03T00:15:09.049Z,84.30
2018-07-03T00:17:38.463Z,84.60
2018-07-03T00:20:08.416Z,84.80
2018-07-03T00:22:37.144Z,84.80
2018-07-03T00:25:05.872Z,85.00
2018-07-03T00:27:34.721Z,85.00
2018-07-03T00:30:03.539Z,84.90
2018-07-03T00:32:32.265Z,85.20
2018-07-03T00:35:00.975Z,85.40
2018-07-03T00:37:29.794Z,85.60
2018-07-03T00:39:58.564Z,85.30
2018-07-03T00:42:27.320Z,85.40
2018-07-03T00:44:56.104Z,85.60
2018-07-03T00:47:24.828Z,85.80
2018-07-03T00:49:53.554Z,85.90
2018-07-03T00:52:22.262Z,86.00
2018-07-03T00:54:50.956Z,86.40
2018-07-03T00:57:19.744Z,86.40
2018-07-03T00:59:59.644Z,86.40
2018-07-03T01:02:28.406Z,86.50
2018-07-03T01:04:57.193Z,87.00
2018-07-03T01:07:25.911Z,86.90
2018-07-03T01:09:54.909Z,87.30
2018-07-03T01:12:23.596Z,87.30
2018-07-03T01:14:52.268Z,87.30
2018-07-03T01:17:21.001Z,87.50
2018-07-03T01:19:49.683Z,87.60
2018-07-03T01:22:18.441Z,87.80
2018-07-03T01:24:47.128Z,88.00
2018-07-03T01:27:15.848Z,88.00
2018-07-03T01:29:44.533Z,88.20
2018-07-03T01:32:13.491Z,88.30
2018-07-03T01:34:42.186Z,88.40
2018-07-03T01:37:11.089Z,88.40
2018-07-03T01:39:39.828Z,88.70
2018-07-03T01:42:08.589Z,89.00
2018-07-03T01:44:37.402Z,89.20
2018-07-03T01:47:06.175Z,89.30
2018-07-03T01:49:34.878Z,89.30
2018-07-03T01:52:03.599Z,89.50
2018-07-03T01:54:32.312Z,89.70
2018-07-03T01:57:01.045Z,89.90
2018-07-03T01:59:29.707Z,90.00
2018-07-03T02:01:58.572Z,90.00
2018-07-03T02:04:27.368Z,90.00
2018-07-03T02:06:56.109Z,90.20
2018-07-03T02:09:24.898Z,90.30
2018-07-03T02:11:53.900Z,90.40
2018-07-03T02:14:22.567Z,90.50
2018-07-03T02:16:51.319Z,90.60
2018-07-03T02:19:19.963Z,90.70
2018-07-03T02:21:48.668Z,90.70
2018-07-03T02:24:17.367Z,90.80
2018-07-03T02:26:46.546Z,90.80
2018-07-03T02:29:15.198Z,91.00
2018-07-03T02:31:43.865Z,91.20
2018-07-03T02:34:12.533Z,91.20
2018-07-03T02:36:41.295Z,91.40
2018-07-03T02:39:11.233Z,91.40
2018-07-03T02:41:40.388Z,91.60
2018-07-03T02:44:09.093Z,91.60
2018-07-03T02:46:37.853Z,91.60
2018-07-03T02:49:06.696Z,91.80
2018-07-03T02:51:35.377Z,91.80
2018-07-03T02:54:04.110Z,91.90
2018-07-03T02:56:32.884Z,92.00
2018-07-03T02:59:01.680Z,92.00
2018-07-03T03:01:30.492Z,92.30
2018-07-03T03:03:59.280Z,92.20
2018-07-03T03:06:28.118Z,92.20
2018-07-03T03:08:56.890Z,92.10
2018-07-03T03:11:25.619Z,92.60
2018-07-03T03:13:56.251Z,92.70
2018-07-03T03:16:25.029Z,92.70
2018-07-03T03:18:53.780Z,92.80
2018-07-03T03:21:22.564Z,92.90
2018-07-03T03:23:51.231Z,93.00
2018-07-03T03:26:19.955Z,93.10
2018-07-03T03:28:48.705Z,93.30
2018-07-03T03:31:17.415Z,93.40
2018-07-03T03:33:46.163Z,93.60
2018-07-03T03:36:14.912Z,93.80
2018-07-03T03:38:43.676Z,93.90
2018-07-03T03:41:12.358Z,94.30
2018-07-03T03:43:41.754Z,94.10
2018-07-03T03:46:10.504Z,94.30
2018-07-03T03:48:39.246Z,94.40
2018-07-03T03:51:07.980Z,94.50
2018-07-03T03:53:36.722Z,94.70
2018-07-03T03:56:05.498Z,94.90
2018-07-03T03:58:34.284Z,95.00
2018-07-03T04:01:02.983Z,95.20
2018-07-03T04:03:31.778Z,95.20
2018-07-03T04:06:00.581Z,95.30
2018-07-03T04:08:29.399Z,95.40
2018-07-03T04:10:58.181Z,95.50
2018-07-03T04:13:26.927Z,95.60
2018-07-03T04:15:55.670Z,95.80
2018-07-03T04:18:40.904Z,96.00
2018-07-03T04:21:09.610Z,96.10
2018-07-03T04:23:38.777Z,96.20
2018-07-03T04:26:07.638Z,96.40
2018-07-03T04:28:36.392Z,96.40
2018-07-03T04:31:05.110Z,96.50
2018-07-03T04:33:33.939Z,96.40
2018-07-03T04:36:02.694Z,96.40
2018-07-03T04:38:31.488Z,96.20
2018-07-03T04:41:00.237Z,96.10
2018-07-03T04:43:28.965Z,96.10
2018-07-03T04:45:57.726Z,96.10
2018-07-03T04:48:26.575Z,96.50
2018-07-03T04:50:55.255Z,96.20
2018-07-03T04:53:24.074Z,96.20
2018-07-03T04:55:52.833Z,96.10
2018-07-03T04:58:21.524Z,96.10
2018-07-03T05:00:50.221Z,96.00
2018-07-03T05:03:18.986Z,95.90
2018-07-03T05:05:47.738Z,95.70
2018-07-03T05:08:16.586Z,95.70
2018-07-03T05:10:45.412Z,95.60
2018-07-03T05:13:14.200Z,95.70
2018-07-03T05:15:43.011Z,95.70
2018-07-03T05:18:11.820Z,95.50
2018-07-03T05:20:40.588Z,95.50
2018-07-03T05:25:37.692Z,95.50
2018-07-03T05:28:06.417Z,95.50
2018-07-03T05:30:35.165Z,95.40
2018-07-03T05:33:03.891Z,95.50
2018-07-03T05:35:32.574Z,95.50
2018-07-03T05:38:01.562Z,95.20
2018-07-03T05:40:30.438Z,95.10
2018-07-03T05:42:59.363Z,94.90
2018-07-03T05:45:28.197Z,95.10
2018-07-03T05:47:56.988Z,94.80
2018-07-03T05:50:26.502Z,94.70
2018-07-03T05:52:56.103Z,94.80
2018-07-03T05:55:24.958Z,94.70
2018-07-03T05:57:53.883Z,94.80
2018-07-03T06:00:22.730Z,94.60
2018-07-03T06:02:51.675Z,94.40
2018-07-03T06:05:20.647Z,94.20
2018-07-03T06:07:49.690Z,94.10
2018-07-03T06:10:18.617Z,94.10
2018-07-03T06:12:47.471Z,94.10
2018-07-03T06:17:45.466Z,94.40
2018-07-03T06:20:14.410Z,93.80
2018-07-03T06:22:43.217Z,93.80
2018-07-03T06:25:12.176Z,93.60
2018-07-03T06:27:40.868Z,93.40
2018-07-03T06:30:11.774Z,93.90
2018-07-03T06:35:09.020Z,93.60
2018-07-03T06:37:37.903Z,93.50
2018-07-03T06:40:06.749Z,93.40
2018-07-03T06:42:35.527Z,93.40
2018-07-03T06:45:05.831Z,93.20
2018-07-03T06:47:34.637Z,93.30
2018-07-03T06:50:03.501Z,93.00
2018-07-03T06:52:32.428Z,92.80
2018-07-03T06:55:01.225Z,92.90
2018-07-03T06:57:30.044Z,92.60
2018-07-03T06:59:58.831Z,92.50
2018-07-03T07:04:56.347Z,92.30
2018-07-03T07:07:25.266Z,92.10
2018-07-03T07:09:54.225Z,92.30
2018-07-03T07:12:23.114Z,91.70
2018-07-03T07:14:52.149Z,91.80
2018-07-03T07:17:21.082Z,92.10
2018-07-03T07:22:18.685Z,91.60
2018-07-03T07:24:47.575Z,91.60
2018-07-03T07:27:16.983Z,91.50
2018-07-03T07:29:46.059Z,91.10
2018-07-03T07:32:15.074Z,91.40
2018-07-03T07:34:44.059Z,90.90
2018-07-03T07:37:12.995Z,90.80
2018-07-03T07:39:41.817Z,91.00
2018-07-03T07:42:10.619Z,90.60
2018-07-03T07:44:39.484Z,90.10
2018-07-03T07:47:08.473Z,90.20
2018-07-03T07:49:37.367Z,90.00
2018-07-03T07:52:06.356Z,90.10
2018-07-03T07:54:36.064Z,89.40
2018-07-03T07:57:05.054Z,89.30
2018-07-03T07:59:34.148Z,88.60
2018-07-03T08:02:02.998Z,87.70
2018-07-03T08:04:31.867Z,89.30
2018-07-03T08:07:00.685Z,89.20
2018-07-03T08:09:29.505Z,87.30
2018-07-03T08:11:58.283Z,87.80
2018-07-03T08:14:27.059Z,87.30
2018-07-03T08:16:56.087Z,87.30
2018-07-03T08:21:53.280Z,87.80
2018-07-03T08:24:21.981Z,86.60
2018-07-03T08:26:51.719Z,86.60
2018-07-03T08:29:20.541Z,85.60
2018-07-03T08:31:49.416Z,84.10
2018-07-03T08:34:18.926Z,84.40
2018-07-03T08:36:48.637Z,84.90
2018-07-03T08:39:17.325Z,84.20
2018-07-03T08:41:46.291Z,85.10
2018-07-03T08:44:14.924Z,86.00
2018-07-03T08:46:45.012Z,85.50
2018-07-03T08:49:13.707Z,83.70
2018-07-03T08:51:42.512Z,83.60
2018-07-03T08:54:11.178Z,84.20
2018-07-03T08:56:39.984Z,82.00
2018-07-03T08:59:09.260Z,80.40
2018-07-03T09:04:06.442Z,81.60
2018-07-03T09:06:35.177Z,81.80
2018-07-03T09:09:06.463Z,78.90
2018-07-03T09:11:35.332Z,81.90
2018-07-03T09:14:04.387Z,79.90
2018-07-03T09:16:33.097Z,80.50
2018-07-03T09:19:01.824Z,78.20
2018-07-03T09:21:30.517Z,77.70
2018-07-03T09:23:59.354Z,77.40
2018-07-03T09:26:28.178Z,79.00
2018-07-03T09:28:56.935Z,76.50
2018-07-03T09:31:25.758Z,78.90
2018-07-03T09:33:54.525Z,77.40
2018-07-03T09:36:23.444Z,75.60
2018-07-03T09:38:52.176Z,77.00
2018-07-03T09:41:21.088Z,76.10
2018-07-03T09:43:49.843Z,75.30
2018-07-03T09:46:18.642Z,76.60
2018-07-03T09:48:47.450Z,74.70
2018-07-03T09:51:16.247Z,73.90
2018-07-03T09:53:44.976Z,73.20
2018-07-03T09:56:13.733Z,73.90
2018-07-03T10:01:16.099Z,73.80
2018-07-03T10:03:44.847Z,73.50
2018-07-03T10:06:13.591Z,72.80
2018-07-03T10:08:42.394Z,73.10
2018-07-03T10:13:39.586Z,72.70
2018-07-03T10:16:08.869Z,72.80
2018-07-03T10:18:37.652Z,71.50
2018-07-03T10:21:06.394Z,71.30
2018-07-03T10:23:35.240Z,73.00
2018-07-03T10:26:04.213Z,71.30
2018-07-03T10:28:33.065Z,72.30
2018-07-03T10:31:01.777Z,70.10
2018-07-03T10:33:30.517Z,72.30
2018-07-03T10:35:59.281Z,70.80
2018-07-03T10:38:28.246Z,68.30
2018-07-03T10:40:57.024Z,66.70
2018-07-03T10:43:25.768Z,66.50
2018-07-03T10:45:54.557Z,67.00
2018-07-03T10:48:23.347Z,63.20
2018-07-03T10:50:52.151Z,62.40
2018-07-03T10:53:20.838Z,62.10
2018-07-03T10:55:49.558Z,60.50
2018-07-03T10:58:18.371Z,60.40
2018-07-03T11:00:47.152Z,59.60
2018-07-03T11:03:15.890Z,60.00
2018-07-03T11:05:44.670Z,60.60
2018-07-03T11:08:13.396Z,59.80
2018-07-03T11:10:42.245Z,60.00
2018-07-03T11:13:10.925Z,61.90
2018-07-03T11:15:39.600Z,61.10
2018-07-03T11:18:08.505Z,61.80
2018-07-03T11:20:37.293Z,61.00
2018-07-03T11:23:06.028Z,59.90
2018-07-03T11:25:34.827Z,60.50
2018-07-03T11:28:03.602Z,62.60
2018-07-03T11:30:32.343Z,60.70
2018-07-03T11:33:01.138Z,58.80
2018-07-03T11:35:29.893Z,57.60
2018-07-03T11:37:58.736Z,57.30
2018-07-03T11:40:27.621Z,59.60
2018-07-03T11:42:56.438Z,59.70
2018-07-03T11:45:25.269Z,58.80
2018-07-03T11:47:53.960Z,59.90
2018-07-03T11:50:22.836Z,58.60
2018-07-03T11:52:51.710Z,57.90
2018-07-03T11:55:20.520Z,58.40
2018-07-03T11:57:49.288Z,58.90
2018-07-03T12:00:18.785Z,58.80
2018-07-03T12:02:48.202Z,56.70
2018-07-03T12:05:17.043Z,56.80
2018-07-03T12:07:45.951Z,57.00
2018-07-03T12:10:14.717Z,58.70
2018-07-03T12:12:44.452Z,57.30
2018-07-03T12:15:13.249Z,56.90
2018-07-03T12:17:42.073Z,56.20
2018-07-03T12:20:11.672Z,57.20
2018-07-03T12:22:40.490Z,57.00
2018-07-03T12:25:09.280Z,56.00
2018-07-03T12:27:38.114Z,55.20
2018-07-03T12:32:36.804Z,55.50
2018-07-03T12:35:05.636Z,56.80
2018-07-03T12:37:34.364Z,55.20
2018-07-03T12:40:03.054Z,55.80
2018-07-03T12:42:31.915Z,55.90
2018-07-03T12:45:00.596Z,55.80
2018-07-03T12:47:29.771Z,55.30
2018-07-03T12:49:58.728Z,55.80
2018-07-03T12:52:27.616Z,54.80
2018-07-03T12:54:56.387Z,55.00
2018-07-03T12:57:25.180Z,53.10
2018-07-03T12:59:54.012Z,53.70
2018-07-03T13:02:22.879Z,55.10
2018-07-03T13:04:51.699Z,54.30
2018-07-03T13:07:20.865Z,53.50
2018-07-03T13:09:49.517Z,54.10
2018-07-03T13:12:18.297Z,54.40
2018-07-03T13:14:47.021Z,53.90
2018-07-03T13:17:15.745Z,53.40
2018-07-03T13:19:44.499Z,53.30
2018-07-03T13:22:13.210Z,54.40
2018-07-03T13:24:42.138Z,53.60
2018-07-03T13:27:10.954Z,52.80
2018-07-03T13:29:39.778Z,52.70
2018-07-03T13:32:08.554Z,51.40
2018-07-03T13:37:05.649Z,52.80
2018-07-03T13:39:34.463Z,53.20
2018-07-03T13:42:03.281Z,52.90
2018-07-03T13:44:32.101Z,53.40
2018-07-03T13:47:00.791Z,53.90
2018-07-03T13:49:29.602Z,53.00
2018-07-03T13:51:58.311Z,52.50
2018-07-03T13:54:27.155Z,54.00
2018-07-03T13:56:55.871Z,53.20
2018-07-03T13:59:24.793Z,54.60
2018-07-03T14:01:53.423Z,53.30
2018-07-03T14:04:22.170Z,53.30
2018-07-03T14:06:51.042Z,54.30
2018-07-03T14:09:19.810Z,54.70
2018-07-03T14:11:48.504Z,52.30
2018-07-03T14:14:17.197Z,54.60
2018-07-03T14:16:46.031Z,54.00
2018-07-03T14:19:14.797Z,53.50
2018-07-03T14:21:43.566Z,53.00
2018-07-03T14:24:12.361Z,53.10
2018-07-03T14:26:41.231Z,52.20
2018-07-03T14:29:10.145Z,52.50
2018-07-03T14:31:38.869Z,53.40
2018-07-03T14:34:07.793Z,55.00
2018-07-03T14:36:36.545Z,53.70
2018-07-03T14:39:09.465Z,54.20
2018-07-03T14:41:38.208Z,52.00
2018-07-03T14:44:07.139Z,54.40
2018-07-03T14:46:36.036Z,53.30
2018-07-03T14:49:05.017Z,51.80
2018-07-03T14:51:33.828Z,52.00
2018-07-03T14:54:02.637Z,53.80
2018-07-03T14:56:32.138Z,52.60
2018-07-03T14:59:00.853Z,51.90
2018-07-03T15:01:29.612Z,52.40
2018-07-03T15:03:58.449Z,52.20
2018-07-03T15:06:27.395Z,53.60
2018-07-03T15:08:56.333Z,53.10
2018-07-03T15:11:25.161Z,52.00
2018-07-03T15:13:53.897Z,52.90
2018-07-03T15:16:22.804Z,52.20
2018-07-03T15:18:56.833Z,52.40
2018-07-03T15:21:25.680Z,52.30
2018-07-03T15:23:54.451Z,52.70
